createdAt,value
2019-05-13T00:01:56.485Z,1.67
2019-05-13T00:04:24.244Z,1.80
2019-05-13T00:06:54.433Z,1.87
2019-05-13T00:09:18.430Z,1.80
2019-05-13T00:11:44.534Z,2.00
2019-05-13T00:14:10.726Z,1.60
2019-05-13T00:16:36.938Z,1.80
2019-05-13T00:19:04.200Z,1.80
2019-05-13T00:21:30.649Z,1.60
2019-05-13T00:23:56.911Z,2.10
2019-05-13T00:26:24.446Z,1.83
2019-05-13T00:28:50.681Z,1.90
2019-05-13T00:31:16.810Z,1.90
2019-05-13T00:33:44.434Z,1.80
2019-05-13T00:36:11.402Z,1.50
2019-05-13T00:38:37.570Z,2.37
2019-05-13T00:41:03.905Z,1.73
2019-05-13T00:43:30.168Z,1.80
2019-05-13T00:45:56.523Z,2.00
2019-05-13T00:48:23.359Z,1.90
2019-05-13T00:50:49.811Z,1.70
2019-05-13T00:53:16.201Z,1.97
2019-05-13T00:55:44.218Z,1.80
2019-05-13T00:58:13.727Z,1.90
2019-05-13T01:00:39.354Z,1.70
2019-05-13T01:03:05.679Z,1.70
2019-05-13T01:05:33.786Z,1.90
2019-05-13T01:07:59.879Z,1.90
2019-05-13T01:10:25.981Z,1.60
2019-05-13T01:12:53.967Z,1.77
2019-05-13T01:15:20.283Z,1.90
2019-05-13T01:17:46.402Z,1.80
2019-05-13T01:20:14.395Z,1.63
2019-05-13T01:22:40.702Z,1.80
2019-05-13T01:25:07.183Z,1.67
2019-05-13T01:27:33.532Z,1.50
2019-05-13T01:30:00.110Z,1.60
2019-05-13T01:32:26.165Z,2.00
2019-05-13T01:34:53.856Z,1.97
2019-05-13T01:37:20.210Z,1.63
2019-05-13T01:39:46.333Z,1.70
2019-05-13T01:42:13.728Z,1.90
2019-05-13T01:44:40.054Z,1.53
2019-05-13T01:47:06.115Z,1.70
2019-05-13T01:49:33.691Z,1.80
2019-05-13T01:52:00.074Z,1.90
2019-05-13T01:54:26.496Z,2.00
2019-05-13T01:56:53.508Z,1.50
2019-05-13T01:59:19.767Z,1.80
2019-05-13T02:01:45.868Z,1.70
2019-05-13T02:04:14.048Z,1.90
2019-05-13T02:06:40.036Z,1.80
2019-05-13T02:09:06.432Z,1.70
2019-05-13T02:11:34.165Z,1.70
2019-05-13T02:14:00.407Z,1.40
2019-05-13T02:16:26.510Z,1.70
2019-05-13T02:18:53.669Z,1.70
2019-05-13T02:21:20.085Z,1.60
2019-05-13T02:23:46.135Z,1.80
2019-05-13T02:26:13.553Z,1.60
2019-05-13T02:28:39.784Z,1.70
2019-05-13T02:31:05.939Z,1.70
2019-05-13T02:33:33.912Z,1.60
2019-05-13T02:36:02.887Z,1.70
2019-05-13T02:38:30.824Z,1.80
2019-05-13T02:40:56.346Z,1.77
2019-05-13T02:43:23.867Z,1.63
2019-05-13T02:45:53.179Z,2.03
2019-05-13T02:48:22.860Z,1.87
2019-05-13T02:50:47.174Z,1.73
2019-05-13T02:53:13.832Z,1.70
2019-05-13T02:55:43.422Z,1.73
2019-05-13T02:58:08.298Z,1.80
2019-05-13T03:00:34.526Z,1.93
2019-05-13T03:03:03.261Z,2.10
2019-05-13T03:05:28.605Z,1.90
2019-05-13T03:07:54.764Z,1.80
2019-05-13T03:10:22.421Z,1.90
2019-05-13T03:12:48.642Z,2.27
2019-05-13T03:15:16.212Z,1.77
2019-05-13T03:17:53.050Z,2.10
2019-05-13T03:20:22.418Z,2.00
2019-05-13T03:22:47.096Z,2.10
2019-05-13T03:25:13.307Z,2.20
2019-05-13T03:27:42.546Z,2.00
2019-05-13T03:30:07.776Z,1.83
2019-05-13T03:32:42.197Z,2.10
2019-05-13T03:35:07.175Z,2.10
2019-05-13T03:37:34.798Z,1.93
2019-05-13T03:40:03.410Z,2.20
2019-05-13T03:42:33.512Z,2.37
2019-05-13T03:45:02.742Z,2.30
2019-05-13T03:47:28.651Z,2.10
2019-05-13T03:49:57.311Z,2.10
2019-05-13T03:52:23.429Z,2.10
2019-05-13T03:54:52.074Z,2.43
2019-05-13T03:57:18.086Z,2.10
2019-05-13T03:59:44.757Z,2.30
2019-05-13T04:02:12.973Z,2.60
2019-05-13T04:04:42.106Z,2.70
2019-05-13T04:07:07.317Z,3.10
2019-05-13T04:09:36.404Z,3.27
2019-05-13T04:12:03.250Z,3.20
2019-05-13T04:14:33.419Z,2.60
2019-05-13T04:17:01.909Z,2.70
2019-05-13T04:19:27.200Z,2.80
2019-05-13T04:21:53.261Z,2.90
2019-05-13T04:24:22.594Z,2.20
2019-05-13T04:26:47.537Z,2.70
2019-05-13T04:29:13.738Z,2.70
2019-05-13T04:31:42.364Z,2.70
2019-05-13T04:34:08.022Z,2.93
2019-05-13T04:36:34.388Z,2.90
2019-05-13T04:39:03.264Z,2.73
2019-05-13T04:41:28.946Z,2.97
2019-05-13T04:43:55.100Z,2.90
2019-05-13T04:46:22.786Z,3.00
2019-05-13T04:48:52.740Z,2.50
2019-05-13T04:51:17.545Z,2.80
2019-05-13T04:53:43.653Z,2.70
2019-05-13T04:56:13.268Z,2.73
2019-05-13T04:58:38.138Z,2.60
2019-05-13T05:01:23.987Z,2.90
2019-05-13T05:03:56.879Z,2.60
2019-05-13T05:06:33.314Z,2.57
2019-05-13T05:09:08.169Z,2.70
2019-05-13T05:11:57.744Z,3.30
2019-05-13T05:14:33.661Z,3.37
2019-05-13T05:17:22.527Z,3.17
2019-05-13T05:20:06.986Z,3.00
2019-05-13T05:22:51.150Z,2.87
2019-05-13T05:25:41.742Z,3.00
2019-05-13T05:28:17.865Z,2.80
2019-05-13T05:30:51.903Z,3.17
2019-05-13T05:33:41.210Z,2.93
2019-05-13T05:36:26.238Z,2.90
2019-05-13T05:39:01.598Z,3.07
2019-05-13T05:41:28.903Z,2.80
2019-05-13T05:43:55.819Z,2.70
2019-05-13T05:46:23.366Z,2.70
2019-05-13T05:48:53.001Z,2.90
2019-05-13T05:51:22.113Z,2.90
2019-05-13T05:53:51.683Z,3.00
2019-05-13T05:56:21.866Z,2.73
2019-05-13T05:58:48.851Z,4.20
2019-05-13T06:01:15.405Z,2.67
2019-05-13T06:03:43.206Z,2.60
2019-05-13T06:06:12.380Z,2.60
2019-05-13T06:08:41.115Z,2.77
2019-05-13T06:11:07.226Z,2.90
2019-05-13T06:13:35.227Z,2.77
2019-05-13T06:16:01.881Z,2.70
2019-05-13T06:18:28.104Z,2.23
2019-05-13T06:20:54.272Z,2.87
2019-05-13T06:23:22.139Z,3.10
2019-05-13T06:25:48.357Z,2.63
2019-05-13T06:28:14.404Z,2.80
2019-05-13T06:30:41.443Z,2.50
2019-05-13T06:33:07.758Z,2.80
2019-05-13T06:35:33.950Z,3.10
2019-05-13T06:38:01.412Z,2.70
2019-05-13T06:40:27.621Z,2.40
2019-05-13T06:42:53.878Z,3.20
2019-05-13T06:45:21.649Z,2.95
2019-05-13T06:47:48.016Z,2.72
2019-05-13T06:50:14.307Z,2.33
2019-05-13T06:52:42.486Z,2.60
2019-05-13T06:55:11.397Z,2.37
2019-05-13T06:57:37.010Z,2.70
2019-05-13T07:00:07.356Z,2.33
2019-05-13T07:02:33.429Z,2.30
2019-05-13T07:05:02.061Z,2.58
2019-05-13T07:07:27.777Z,2.55
2019-05-13T07:09:53.917Z,2.20
2019-05-13T07:12:21.915Z,2.50
2019-05-13T07:14:48.123Z,2.45
2019-05-13T07:17:14.217Z,2.90
2019-05-13T07:19:41.433Z,2.80
2019-05-13T07:22:07.889Z,3.08
2019-05-13T07:24:33.933Z,2.58
2019-05-13T07:27:01.843Z,2.40
2019-05-13T07:29:28.194Z,2.85
2019-05-13T07:31:54.318Z,2.58
2019-05-13T07:34:24.530Z,2.90
2019-05-13T07:36:48.627Z,2.77
2019-05-13T07:39:14.977Z,2.85
2019-05-13T07:41:43.176Z,2.85
2019-05-13T07:44:11.655Z,3.10
2019-05-13T07:46:37.007Z,2.58
2019-05-13T07:49:03.223Z,2.70
2019-05-13T07:51:31.654Z,2.62
2019-05-13T07:53:57.278Z,2.75
2019-05-13T07:56:23.331Z,2.72
2019-05-13T07:58:52.132Z,2.75
2019-05-13T08:01:17.355Z,2.55
2019-05-13T08:03:43.426Z,2.42
2019-05-13T08:06:11.152Z,2.52
2019-05-13T08:08:37.655Z,2.17
2019-05-13T08:11:03.772Z,2.10
2019-05-13T08:13:31.407Z,2.35
2019-05-13T08:15:57.735Z,2.80
2019-05-13T08:18:23.841Z,2.70
2019-05-13T08:20:52.292Z,2.37
2019-05-13T08:23:18.016Z,2.22
2019-05-13T08:25:44.181Z,2.00
2019-05-13T08:28:12.235Z,2.87
2019-05-13T08:30:38.747Z,2.92
2019-05-13T08:33:05.046Z,2.90
2019-05-13T08:35:31.590Z,2.55
2019-05-13T08:37:57.853Z,2.58
2019-05-13T08:40:24.025Z,2.33
2019-05-13T08:42:51.979Z,2.45
2019-05-13T08:45:18.460Z,2.85
2019-05-13T08:47:44.635Z,2.45
2019-05-13T08:50:12.175Z,2.50
2019-05-13T08:52:42.015Z,2.00
2019-05-13T08:55:07.645Z,1.95
2019-05-13T08:57:33.749Z,1.80
2019-05-13T09:00:05.098Z,1.82
2019-05-13T09:02:27.868Z,2.47
2019-05-13T09:04:54.047Z,1.57
2019-05-13T09:07:23.897Z,1.85
2019-05-13T09:09:48.328Z,1.50
2019-05-13T09:12:28.571Z,1.60
2019-05-13T09:14:42.402Z,1.80
2019-05-13T09:17:08.563Z,2.08
2019-05-13T09:19:34.646Z,1.50
2019-05-13T09:22:03.036Z,1.50
2019-05-13T09:24:34.237Z,1.72
2019-05-13T09:26:56.862Z,1.45
2019-05-13T09:29:22.926Z,1.50
2019-05-13T09:31:51.668Z,2.37
2019-05-13T09:34:17.024Z,2.12
2019-05-13T09:36:43.212Z,2.10
2019-05-13T09:39:09.468Z,1.90
2019-05-13T09:41:40.707Z,2.20
2019-05-13T09:44:03.717Z,2.27
2019-05-13T09:46:31.877Z,2.08
2019-05-13T09:49:11.779Z,2.50
2019-05-13T09:51:25.941Z,4.80
2019-05-13T09:53:52.162Z,2.10
2019-05-13T09:56:18.362Z,2.80
2019-05-13T09:58:44.441Z,2.50
2019-05-13T10:01:12.359Z,1.98
2019-05-13T10:03:53.294Z,1.77
2019-05-13T10:06:06.719Z,1.90
2019-05-13T10:08:33.048Z,1.85
2019-05-13T10:11:01.632Z,1.87
2019-05-13T10:13:27.759Z,1.67
2019-05-13T10:15:53.921Z,1.90
2019-05-13T10:18:21.916Z,1.70
2019-05-13T10:20:52.883Z,1.57
2019-05-13T10:23:22.108Z,1.60
2019-05-13T10:25:52.160Z,1.40
2019-05-13T10:28:21.615Z,1.65
2019-05-13T10:30:47.005Z,1.47
2019-05-13T10:33:13.454Z,1.45
2019-05-13T10:35:42.881Z,1.60
2019-05-13T10:38:13.132Z,1.98
2019-05-13T10:40:38.495Z,1.50
2019-05-13T10:43:05.346Z,2.00
2019-05-13T10:45:33.226Z,1.67
2019-05-13T10:48:02.574Z,1.47
2019-05-13T10:50:27.802Z,1.62
2019-05-13T10:52:54.314Z,1.67
2019-05-13T10:55:21.546Z,1.52
2019-05-13T10:57:47.806Z,1.57
2019-05-13T11:00:14.305Z,1.85
2019-05-13T11:02:42.324Z,1.80
2019-05-13T11:05:08.611Z,1.87
2019-05-13T11:07:34.889Z,1.80
2019-05-13T11:10:02.371Z,1.60
2019-05-13T11:12:28.975Z,1.87
2019-05-13T11:14:55.461Z,1.92
2019-05-13T11:17:29.660Z,2.02
2019-05-13T11:19:49.772Z,2.27
2019-05-13T11:22:15.840Z,2.10
2019-05-13T11:24:43.176Z,1.90
2019-05-13T11:27:11.803Z,1.98
2019-05-13T11:29:37.620Z,2.20
2019-05-13T11:32:04.172Z,1.72
2019-05-13T11:34:32.839Z,1.85
2019-05-13T11:36:58.273Z,2.10
2019-05-13T11:39:24.358Z,2.05
2019-05-13T11:41:50.550Z,2.27
2019-05-13T11:44:17.166Z,1.80
2019-05-13T11:46:43.435Z,2.27
2019-05-13T11:49:11.770Z,1.87
2019-05-13T11:51:37.558Z,2.33
2019-05-13T11:54:03.927Z,1.90
2019-05-13T11:56:33.399Z,1.80
2019-05-13T11:58:57.971Z,1.80
2019-05-13T12:01:24.147Z,1.92
2019-05-13T12:03:53.032Z,2.10
2019-05-13T12:06:18.512Z,1.77
2019-05-13T12:08:51.065Z,1.65
2019-05-13T12:11:13.906Z,1.70
2019-05-13T12:13:42.625Z,1.62
2019-05-13T12:16:08.431Z,1.80
2019-05-13T12:18:34.664Z,1.60
2019-05-13T12:21:03.387Z,1.60
2019-05-13T12:23:29.196Z,1.47
2019-05-13T12:25:55.358Z,1.40
2019-05-13T12:28:21.457Z,1.72
2019-05-13T12:30:47.921Z,2.10
2019-05-13T12:33:14.025Z,1.27
2019-05-13T12:35:40.090Z,1.90
2019-05-13T12:38:06.150Z,1.90
2019-05-13T12:40:33.785Z,1.90
2019-05-13T12:43:01.959Z,1.30
2019-05-13T12:45:28.575Z,1.50
2019-05-13T12:47:54.699Z,1.50
2019-05-13T12:50:23.757Z,1.98
2019-05-13T12:52:51.483Z,1.90
2019-05-13T12:55:17.583Z,2.40
2019-05-13T12:57:43.622Z,2.20
2019-05-13T13:00:12.470Z,1.70
2019-05-13T13:02:37.913Z,1.72
2019-05-13T13:05:14.062Z,1.67
2019-05-13T13:07:34.945Z,1.67
2019-05-13T13:10:00.167Z,1.80
2019-05-13T13:12:34.153Z,1.70
2019-05-13T13:14:54.690Z,1.62
2019-05-13T13:17:24.083Z,1.75
2019-05-13T13:19:48.961Z,1.60
2019-05-13T13:22:15.050Z,2.00
2019-05-13T13:24:48.381Z,1.87
2019-05-13T13:27:16.137Z,2.40
2019-05-13T13:29:37.049Z,1.98
2019-05-13T13:32:03.291Z,1.92
2019-05-13T13:34:33.408Z,1.80
2019-05-13T13:36:57.512Z,1.85
2019-05-13T13:39:25.188Z,2.27
2019-05-13T13:41:53.422Z,2.27
2019-05-13T13:44:23.404Z,2.08
2019-05-13T13:46:49.540Z,1.60
2019-05-13T13:49:15.620Z,1.85
2019-05-13T13:51:44.560Z,2.00
2019-05-13T13:54:09.783Z,2.20
2019-05-13T13:56:35.946Z,2.00
2019-05-13T13:59:04.370Z,2.10
2019-05-13T14:01:33.321Z,2.55
2019-05-13T14:03:58.839Z,2.40
2019-05-13T14:07:22.666Z,2.40
2019-05-13T14:08:53.002Z,2.00
2019-05-13T14:11:19.306Z,2.05
2019-05-13T14:13:45.463Z,1.90
2019-05-13T14:16:24.645Z,2.02
2019-05-13T14:18:41.945Z,2.00
2019-05-13T14:21:07.664Z,2.52
2019-05-13T14:23:33.806Z,2.02
2019-05-13T14:25:59.991Z,2.15
2019-05-13T14:28:26.119Z,2.00
2019-05-13T14:30:52.265Z,2.10
2019-05-13T14:33:18.444Z,1.95
2019-05-13T14:35:44.565Z,2.30
2019-05-13T14:38:11.898Z,1.82
2019-05-13T14:40:38.118Z,2.10
2019-05-13T14:43:04.336Z,1.80
2019-05-13T14:45:31.842Z,1.98
2019-05-13T14:47:58.197Z,2.17
2019-05-13T14:50:24.292Z,2.08
2019-05-13T14:52:52.399Z,1.95
2019-05-13T14:55:18.345Z,2.30
2019-05-13T14:57:44.413Z,2.05
2019-05-13T15:00:11.427Z,1.87
2019-05-13T15:02:37.929Z,1.90
2019-05-13T15:05:04.697Z,1.98
2019-05-13T15:07:41.960Z,1.87
2019-05-13T15:10:07.223Z,1.80
2019-05-13T15:12:33.384Z,1.77
2019-05-13T15:15:01.532Z,2.35
2019-05-13T15:17:27.479Z,1.85
2019-05-13T15:19:53.646Z,2.02
2019-05-13T15:22:22.398Z,1.90
2019-05-13T15:24:47.662Z,1.98
2019-05-13T15:27:13.816Z,1.82
2019-05-13T15:29:41.814Z,2.02
2019-05-13T15:32:08.055Z,1.95
2019-05-13T15:34:34.132Z,2.10
2019-05-13T15:37:01.947Z,1.65
2019-05-13T15:39:28.409Z,1.75
2019-05-13T15:41:54.576Z,1.80
2019-05-13T15:44:22.005Z,1.90
2019-05-13T15:46:48.192Z,2.35
2019-05-13T15:49:14.379Z,2.37
2019-05-13T15:51:42.255Z,2.17
2019-05-13T15:54:08.566Z,2.30
2019-05-13T15:56:34.647Z,2.30
2019-05-13T15:59:01.952Z,2.05
2019-05-13T16:01:29.070Z,1.90
2019-05-13T16:03:55.193Z,1.82
2019-05-13T16:06:21.376Z,1.77
2019-05-13T16:08:47.574Z,1.90
2019-05-13T16:11:13.672Z,1.87
2019-05-13T16:13:40.074Z,2.08
2019-05-13T16:16:06.159Z,1.90
2019-05-13T16:18:32.223Z,2.22
2019-05-13T16:20:58.503Z,2.02
2019-05-13T16:23:24.543Z,2.15
2019-05-13T16:25:52.148Z,1.80
2019-05-13T16:28:18.422Z,2.70
2019-05-13T16:30:44.841Z,2.37
2019-05-13T16:33:12.172Z,2.67
2019-05-13T16:35:38.476Z,2.17
2019-05-13T16:38:04.775Z,2.40
2019-05-13T16:40:36.276Z,2.15
2019-05-13T16:43:01.221Z,2.10
2019-05-13T16:45:27.034Z,2.20
2019-05-13T16:47:57.362Z,2.10
2019-05-13T16:50:22.193Z,1.90
2019-05-13T16:52:48.530Z,2.20
2019-05-13T16:55:14.927Z,2.45
2019-05-13T16:57:42.349Z,2.12
2019-05-13T17:00:10.259Z,2.20
2019-05-13T17:02:36.473Z,1.90
2019-05-13T17:05:05.672Z,1.90
2019-05-13T17:07:31.894Z,2.05
2019-05-13T17:10:00.335Z,2.17
2019-05-13T17:12:26.188Z,2.00
2019-05-13T17:14:52.607Z,1.90
2019-05-13T17:17:18.714Z,1.87
2019-05-13T17:19:45.692Z,2.08
2019-05-13T17:22:11.931Z,1.90
2019-05-13T17:24:37.985Z,2.00
2019-05-13T17:27:04.275Z,1.77
2019-05-13T17:29:31.683Z,1.95
2019-05-13T17:31:58.055Z,2.30
2019-05-13T17:34:24.376Z,1.98
2019-05-13T17:36:51.925Z,2.10
2019-05-13T17:39:18.217Z,2.15
2019-05-13T17:41:44.491Z,1.87
2019-05-13T17:44:11.696Z,2.10
2019-05-13T17:46:38.012Z,1.85
2019-05-13T17:49:04.320Z,1.80
2019-05-13T17:51:30.467Z,1.80
2019-05-13T17:53:56.534Z,1.95
2019-05-13T17:56:22.796Z,2.30
2019-05-13T17:58:48.847Z,2.20
2019-05-13T18:01:15.223Z,2.02
2019-05-13T18:03:41.310Z,2.17
2019-05-13T18:06:07.790Z,2.33
2019-05-13T18:08:35.868Z,2.30
2019-05-13T18:11:02.442Z,2.35
2019-05-13T18:13:28.656Z,2.27
2019-05-13T18:15:54.832Z,1.90
2019-05-13T18:18:21.548Z,2.17
2019-05-13T18:20:47.945Z,1.87
2019-05-13T18:23:14.111Z,2.00
2019-05-13T18:25:42.217Z,2.20
2019-05-13T18:28:08.403Z,2.00
2019-05-13T18:30:34.489Z,1.85
2019-05-13T18:33:01.218Z,1.85
2019-05-13T18:35:27.477Z,2.08
2019-05-13T18:37:53.571Z,1.90
2019-05-13T18:40:21.795Z,1.90
2019-05-13T18:42:47.980Z,1.80
2019-05-13T18:45:14.268Z,1.70
2019-05-13T18:47:40.332Z,1.95
2019-05-13T18:50:07.376Z,1.77
2019-05-13T18:52:33.644Z,1.82
2019-05-13T18:55:01.851Z,1.72
2019-05-13T18:57:27.734Z,1.75
2019-05-13T18:59:53.864Z,1.80
2019-05-13T19:02:21.437Z,1.72
2019-05-13T19:04:47.761Z,1.82
2019-05-13T19:07:13.852Z,1.70
2019-05-13T19:09:41.783Z,1.95
2019-05-13T19:12:08.489Z,1.50
2019-05-13T19:14:34.549Z,1.57
2019-05-13T19:17:12.145Z,1.80
2019-05-13T19:19:37.603Z,1.85
2019-05-13T19:22:03.776Z,1.80
2019-05-13T19:24:31.231Z,1.70
2019-05-13T19:26:57.536Z,1.60
2019-05-13T19:29:26.076Z,1.87
2019-05-13T19:31:51.807Z,2.00
2019-05-13T19:34:18.124Z,2.08
2019-05-13T19:36:44.413Z,1.77
2019-05-13T19:39:11.431Z,1.60
2019-05-13T19:41:37.733Z,1.45
2019-05-13T19:44:04.334Z,1.80
2019-05-13T19:46:31.407Z,1.82
2019-05-13T19:48:57.704Z,2.05
2019-05-13T19:51:23.816Z,1.67
2019-05-13T19:53:51.697Z,1.95
2019-05-13T19:56:18.109Z,1.62
2019-05-13T19:58:44.162Z,2.10
2019-05-13T20:01:11.662Z,1.77
2019-05-13T20:03:38.142Z,1.90
2019-05-13T20:06:04.402Z,1.52
2019-05-13T20:08:32.081Z,1.62
2019-05-13T20:10:58.416Z,1.50
2019-05-13T20:13:24.826Z,1.65
2019-05-13T20:15:51.872Z,1.95
2019-05-13T20:18:18.135Z,2.02
2019-05-13T20:20:44.581Z,1.90
2019-05-13T20:23:12.086Z,1.90
2019-05-13T20:25:38.562Z,2.05
2019-05-13T20:28:04.802Z,2.20
2019-05-13T20:30:30.868Z,1.90
2019-05-13T20:32:57.118Z,2.58
2019-05-13T20:35:23.550Z,2.20
2019-05-13T20:37:51.586Z,2.10
2019-05-13T20:40:17.970Z,2.05
2019-05-13T20:42:44.200Z,2.12
2019-05-13T20:45:11.536Z,2.30
2019-05-13T20:47:37.986Z,2.08
2019-05-13T20:50:06.239Z,2.20
2019-05-13T20:52:32.417Z,2.20
2019-05-13T20:54:58.514Z,2.20
2019-05-13T20:57:26.026Z,2.25
2019-05-13T20:59:52.390Z,2.20
2019-05-13T21:02:18.457Z,2.52
2019-05-13T21:04:44.524Z,2.17
2019-05-13T21:07:10.576Z,2.20
2019-05-13T21:09:36.690Z,2.00
2019-05-13T21:12:02.989Z,1.87
2019-05-13T21:14:29.239Z,1.95
2019-05-13T21:16:55.290Z,1.60
2019-05-13T21:19:22.077Z,1.80
2019-05-13T21:21:48.288Z,2.10
2019-05-13T21:24:14.459Z,1.95
2019-05-13T21:26:41.995Z,1.55
2019-05-13T21:29:08.578Z,2.00
2019-05-13T21:31:34.804Z,1.90
2019-05-13T21:34:01.488Z,1.90
2019-05-13T21:36:27.683Z,1.95
2019-05-13T21:38:53.750Z,1.77
2019-05-13T21:41:21.162Z,2.37
2019-05-13T21:43:47.512Z,2.02
2019-05-13T21:46:13.713Z,1.80
2019-05-13T21:48:41.644Z,1.70
2019-05-13T21:51:07.921Z,2.00
2019-05-13T21:53:33.970Z,2.10
2019-05-13T21:56:02.327Z,1.98
2019-05-13T21:58:28.139Z,2.00
2019-05-13T22:00:56.477Z,2.10
2019-05-13T22:03:22.660Z,2.02
2019-05-13T22:05:51.262Z,2.00
2019-05-13T22:08:16.722Z,1.83
2019-05-13T22:10:43.822Z,1.93
2019-05-13T22:13:11.822Z,1.93
2019-05-13T22:15:38.557Z,1.80
2019-05-13T22:18:04.647Z,1.80
2019-05-13T22:20:33.076Z,1.77
2019-05-13T22:22:58.861Z,1.60
2019-05-13T22:25:25.026Z,1.80
2019-05-13T22:27:53.115Z,2.10
2019-05-13T22:30:19.770Z,1.67
2019-05-13T22:32:45.826Z,1.90
2019-05-13T22:35:12.000Z,1.80
2019-05-13T22:37:38.214Z,1.80
2019-05-13T22:40:04.521Z,1.90
2019-05-13T22:42:32.188Z,1.87
2019-05-13T22:44:58.594Z,1.93
2019-05-13T22:47:24.769Z,1.97
2019-05-13T22:49:51.065Z,2.15
2019-05-13T22:52:17.326Z,1.97
2019-05-13T22:54:43.387Z,1.70
2019-05-13T22:57:11.990Z,1.80
2019-05-13T22:59:37.508Z,2.10
2019-05-13T23:02:03.679Z,2.00
2019-05-13T23:04:31.439Z,1.97
2019-05-13T23:06:57.795Z,2.23
2019-05-13T23:09:23.965Z,2.23
2019-05-13T23:11:51.087Z,2.33
2019-05-13T23:14:17.342Z,2.20
2019-05-13T23:16:43.434Z,1.83
2019-05-13T23:19:11.109Z,1.90
2019-05-13T23:21:37.426Z,2.17
2019-05-13T23:24:03.607Z,1.73
2019-05-13T23:26:31.530Z,1.90
2019-05-13T23:28:57.715Z,2.07
2019-05-13T23:31:23.832Z,1.80
2019-05-13T23:33:49.936Z,1.83
2019-05-13T23:36:16.988Z,1.77
2019-05-13T23:38:43.076Z,2.00
2019-05-13T23:41:11.630Z,1.97
2019-05-13T23:43:37.980Z,1.80
2019-05-13T23:46:04.105Z,1.60
2019-05-13T23:48:32.119Z,2.03
2019-05-13T23:50:58.349Z,1.80
2019-05-13T23:53:24.558Z,2.20
2019-05-13T23:55:52.026Z,2.03
2019-05-13T23:58:18.597Z,1.87
